createdAt,value
2023-04-30T00:01:32.083Z,10.78
2023-04-30T00:03:58.736Z,10.80
2023-04-30T00:06:28.071Z,10.72
2023-04-30T00:08:54.900Z,10.81
2023-04-30T00:11:21.463Z,10.72
2023-04-30T00:13:48.102Z,10.73
2023-04-30T00:16:14.637Z,10.78
2023-04-30T00:18:41.171Z,10.73
2023-04-30T00:21:07.767Z,10.68
2023-04-30T00:23:34.249Z,10.70
2023-04-30T00:26:00.933Z,10.64
2023-04-30T00:28:27.618Z,10.70
2023-04-30T00:30:54.213Z,10.63
2023-04-30T00:33:21.029Z,10.59
2023-04-30T00:35:47.676Z,10.50
2023-04-30T00:38:14.301Z,10.49
2023-04-30T00:40:42.177Z,10.36
2023-04-30T00:43:08.829Z,10.30
2023-04-30T00:45:35.479Z,10.14
2023-04-30T00:48:02.340Z,10.04
2023-04-30T00:50:29.463Z,9.94
2023-04-30T00:52:56.106Z,9.76
2023-04-30T00:55:22.743Z,9.68
2023-04-30T00:57:49.228Z,9.60
2023-04-30T01:00:15.963Z,9.46
2023-04-30T01:02:43.957Z,9.39
2023-04-30T01:05:10.650Z,9.36
2023-04-30T01:07:45.100Z,9.17
2023-04-30T01:10:15.812Z,9.13
2023-04-30T01:13:06.987Z,9.00
2023-04-30T01:15:51.669Z,8.87
2023-04-30T01:18:35.536Z,8.73
2023-04-30T01:21:04.996Z,8.60
2023-04-30T01:24:09.757Z,8.56
2023-04-30T01:26:57.854Z,8.47
2023-04-30T01:29:25.058Z,8.47
2023-04-30T01:31:51.786Z,8.34
2023-04-30T01:34:18.590Z,8.31
2023-04-30T01:37:22.133Z,8.16
2023-04-30T01:40:19.001Z,8.15
2023-04-30T01:42:57.113Z,8.01
2023-04-30T01:46:02.889Z,8.01
2023-04-30T01:48:41.597Z,7.93
2023-04-30T01:51:11.221Z,7.85
2023-04-30T01:53:42.759Z,7.87
2023-04-30T01:56:18.855Z,7.79
2023-04-30T01:58:46.651Z,7.72
2023-04-30T02:01:29.745Z,7.64
2023-04-30T02:03:56.814Z,7.58
2023-04-30T02:06:28.610Z,7.51
2023-04-30T02:09:03.271Z,7.52
2023-04-30T02:11:30.187Z,7.46
2023-04-30T02:13:56.752Z,7.43
2023-04-30T02:16:24.286Z,7.31
2023-04-30T02:18:51.314Z,7.25
2023-04-30T02:21:18.365Z,7.17
2023-04-30T02:23:45.942Z,7.07
2023-04-30T02:26:12.413Z,7.08
2023-04-30T02:28:39.054Z,7.10
2023-04-30T02:31:06.014Z,7.08
2023-04-30T02:33:32.988Z,7.08
2023-04-30T02:36:00.385Z,7.11
2023-04-30T02:38:26.976Z,7.12
2023-04-30T02:40:53.491Z,7.15
2023-04-30T02:43:20.432Z,7.04
2023-04-30T02:45:47.189Z,7.01
2023-04-30T02:48:13.867Z,6.97
2023-04-30T02:50:40.476Z,6.89
2023-04-30T02:53:06.975Z,6.82
2023-04-30T02:55:33.548Z,6.82
2023-04-30T02:58:00.268Z,6.78
2023-04-30T03:00:27.125Z,6.72
2023-04-30T03:02:54.703Z,6.59
2023-04-30T03:05:21.509Z,6.60
2023-04-30T03:07:48.012Z,6.53
2023-04-30T03:10:14.640Z,6.46
2023-04-30T03:12:41.221Z,6.37
2023-04-30T03:15:08.438Z,6.41
2023-04-30T03:17:34.954Z,6.32
2023-04-30T03:20:01.481Z,6.31
2023-04-30T03:22:28.034Z,6.28
2023-04-30T03:24:54.657Z,6.27
2023-04-30T03:27:21.237Z,6.21
2023-04-30T03:29:48.814Z,6.13
2023-04-30T03:32:15.558Z,6.15
2023-04-30T03:34:42.551Z,6.17
2023-04-30T03:37:09.086Z,6.16
2023-04-30T03:39:35.897Z,6.15
2023-04-30T03:42:03.759Z,6.08
2023-04-30T03:44:32.614Z,6.08
2023-04-30T03:46:59.155Z,6.06
2023-04-30T03:49:25.779Z,6.15
2023-04-30T03:51:52.286Z,6.22
2023-04-30T03:54:18.769Z,6.32
2023-04-30T03:56:45.211Z,6.40
2023-04-30T03:59:11.701Z,6.42
2023-04-30T04:01:38.423Z,6.43
2023-04-30T04:04:05.138Z,6.46
2023-04-30T04:06:32.260Z,6.45
2023-04-30T04:08:58.933Z,6.50
2023-04-30T04:11:26.691Z,6.45
2023-04-30T04:13:53.371Z,6.49
2023-04-30T04:16:19.980Z,6.50
2023-04-30T04:18:46.717Z,6.50
2023-04-30T04:21:13.244Z,6.52
2023-04-30T04:23:39.771Z,6.48
2023-04-30T04:26:06.246Z,6.44
2023-04-30T04:28:32.805Z,6.42
2023-04-30T04:30:59.656Z,6.41
2023-04-30T04:33:26.235Z,6.45
2023-04-30T04:35:52.755Z,6.44
2023-04-30T04:38:19.500Z,6.44
2023-04-30T04:40:55.769Z,6.51
2023-04-30T04:43:22.375Z,6.56
2023-04-30T04:45:48.946Z,6.58
2023-04-30T04:48:15.626Z,6.61
2023-04-30T04:50:42.475Z,6.67
2023-04-30T04:53:09.084Z,6.77
2023-04-30T04:55:36.174Z,6.98
2023-04-30T04:58:03.379Z,7.14
2023-04-30T05:00:29.960Z,7.17
2023-04-30T05:02:56.848Z,7.19
2023-04-30T05:05:24.190Z,7.29
2023-04-30T05:07:52.461Z,7.38
2023-04-30T05:10:18.975Z,7.38
2023-04-30T05:12:45.565Z,7.61
2023-04-30T05:15:12.591Z,7.97
2023-04-30T05:17:39.117Z,8.27
2023-04-30T05:20:07.304Z,8.86
2023-04-30T05:22:34.038Z,9.39
2023-04-30T05:25:00.554Z,9.82
2023-04-30T05:27:27.656Z,10.15
2023-04-30T05:29:54.365Z,10.73
2023-04-30T05:32:22.923Z,11.36
2023-04-30T05:34:49.949Z,12.05
2023-04-30T05:37:17.766Z,12.21
2023-04-30T05:39:44.323Z,12.25
2023-04-30T05:42:10.869Z,12.82
2023-04-30T05:44:37.486Z,12.82
2023-04-30T05:47:04.127Z,13.50
2023-04-30T05:49:30.553Z,13.72
2023-04-30T05:51:57.450Z,14.22
2023-04-30T05:54:24.202Z,13.71
2023-04-30T05:56:50.960Z,13.02
2023-04-30T05:59:17.540Z,12.31
2023-04-30T06:01:44.194Z,12.61
2023-04-30T06:04:11.679Z,12.66
2023-04-30T06:06:38.687Z,13.28
2023-04-30T06:09:05.234Z,13.04
2023-04-30T06:11:31.910Z,13.96
2023-04-30T06:13:58.585Z,13.58
2023-04-30T06:16:25.273Z,14.57
2023-04-30T06:18:53.569Z,15.28
2023-04-30T06:21:20.954Z,15.93
2023-04-30T06:23:47.480Z,16.54
2023-04-30T06:26:15.286Z,17.35
2023-04-30T06:28:41.812Z,18.17
2023-04-30T06:31:08.419Z,17.62
2023-04-30T06:33:34.970Z,18.95
2023-04-30T06:36:01.575Z,19.74
2023-04-30T06:38:28.866Z,21.09
2023-04-30T06:40:55.493Z,21.43
2023-04-30T06:43:21.889Z,21.10
2023-04-30T06:45:48.323Z,21.29
2023-04-30T06:48:14.876Z,21.90
2023-04-30T06:50:45.032Z,22.15
2023-04-30T06:53:12.496Z,22.34
2023-04-30T06:55:39.608Z,20.24
2023-04-30T06:58:06.230Z,18.52
2023-04-30T07:00:32.795Z,17.72
2023-04-30T07:03:02.681Z,16.57
2023-04-30T07:05:29.952Z,17.12
2023-04-30T07:07:57.405Z,18.68
2023-04-30T07:10:24.103Z,20.33
2023-04-30T07:12:50.803Z,20.71
2023-04-30T07:15:17.423Z,19.74
2023-04-30T07:17:44.471Z,18.67
2023-04-30T07:20:12.048Z,18.34
2023-04-30T07:22:38.579Z,17.65
2023-04-30T07:25:05.917Z,17.62
2023-04-30T07:27:32.714Z,17.05
2023-04-30T07:29:59.306Z,16.09
2023-04-30T07:32:27.362Z,16.11
2023-04-30T07:34:54.103Z,17.58
2023-04-30T07:37:22.778Z,18.86
2023-04-30T07:39:49.461Z,18.63
2023-04-30T07:42:16.065Z,17.80
2023-04-30T07:44:42.480Z,16.67
2023-04-30T07:47:09.957Z,16.04
2023-04-30T07:49:36.694Z,15.64
2023-04-30T07:52:03.594Z,16.10
2023-04-30T07:54:30.246Z,18.18
2023-04-30T07:56:56.759Z,17.47
2023-04-30T07:59:24.514Z,16.63
2023-04-30T08:01:51.781Z,15.64
2023-04-30T08:04:18.294Z,15.41
2023-04-30T08:06:44.914Z,14.43
2023-04-30T08:09:11.614Z,14.44
2023-04-30T08:11:38.075Z,14.34
2023-04-30T08:14:05.521Z,15.33
2023-04-30T08:16:32.013Z,16.55
2023-04-30T08:18:59.258Z,17.58
2023-04-30T08:21:28.044Z,17.04
2023-04-30T08:23:55.026Z,16.04
2023-04-30T08:26:21.968Z,15.50
2023-04-30T08:28:48.442Z,16.55
2023-04-30T08:31:15.233Z,17.54
2023-04-30T08:33:41.695Z,18.09
2023-04-30T08:36:08.280Z,15.34
2023-04-30T08:38:34.913Z,15.73
2023-04-30T08:41:11.456Z,15.48
2023-04-30T08:43:38.334Z,16.51
2023-04-30T08:46:05.640Z,16.86
2023-04-30T08:48:32.472Z,16.47
2023-04-30T08:51:03.612Z,16.16
2023-04-30T08:53:31.592Z,15.74
2023-04-30T08:55:58.396Z,15.39
2023-04-30T08:58:25.286Z,17.18
2023-04-30T09:00:51.756Z,17.80
2023-04-30T09:03:18.534Z,19.18
2023-04-30T09:05:46.251Z,19.15
2023-04-30T09:08:18.382Z,17.40
2023-04-30T09:10:44.921Z,17.01
2023-04-30T09:13:12.228Z,18.59
2023-04-30T09:15:41.636Z,19.98
2023-04-30T09:18:10.033Z,20.80
2023-04-30T09:20:37.004Z,22.85
2023-04-30T09:23:11.148Z,19.74
2023-04-30T09:25:42.248Z,18.72
2023-04-30T09:28:12.837Z,17.57
2023-04-30T09:30:42.345Z,16.83
2023-04-30T09:33:11.476Z,18.26
2023-04-30T09:35:42.614Z,19.90
2023-04-30T09:38:31.974Z,20.24
2023-04-30T09:41:01.788Z,19.05
2023-04-30T09:43:29.939Z,18.66
2023-04-30T09:45:59.263Z,19.47
2023-04-30T09:48:29.930Z,21.62
2023-04-30T09:50:56.834Z,21.81
2023-04-30T09:53:24.321Z,21.75
2023-04-30T09:55:51.541Z,22.48
2023-04-30T09:58:19.076Z,21.23
2023-04-30T10:00:46.839Z,19.93
2023-04-30T10:03:14.571Z,18.69
2023-04-30T10:05:47.554Z,19.71
2023-04-30T10:08:22.143Z,21.04
2023-04-30T10:10:52.561Z,23.34
2023-04-30T10:13:20.449Z,24.42
2023-04-30T10:15:50.442Z,24.96
2023-04-30T10:18:28.406Z,24.52
2023-04-30T10:20:55.272Z,25.35
2023-04-30T10:23:22.210Z,25.85
2023-04-30T10:25:49.341Z,23.77
2023-04-30T10:28:16.115Z,22.19
2023-04-30T10:30:45.774Z,20.05
2023-04-30T10:33:16.822Z,20.13
2023-04-30T10:35:50.979Z,21.16
2023-04-30T10:38:25.548Z,22.89
2023-04-30T10:40:57.304Z,24.98
2023-04-30T10:43:24.727Z,23.89
2023-04-30T10:45:51.462Z,21.60
2023-04-30T10:48:24.741Z,21.01
2023-04-30T10:50:52.728Z,19.80
2023-04-30T10:53:20.738Z,20.15
2023-04-30T10:55:58.626Z,20.25
2023-04-30T10:58:34.196Z,20.07
2023-04-30T11:01:12.838Z,20.64
2023-04-30T11:04:08.630Z,22.58
2023-04-30T11:06:55.660Z,21.94
2023-04-30T11:09:37.477Z,22.19
2023-04-30T11:12:05.254Z,22.21
2023-04-30T11:14:33.126Z,22.26
2023-04-30T11:17:04.441Z,22.40
2023-04-30T11:19:34.579Z,21.83
2023-04-30T11:22:04.139Z,22.41
2023-04-30T11:24:58.965Z,22.85
2023-04-30T11:27:27.062Z,22.96
2023-04-30T11:29:55.170Z,23.09
2023-04-30T11:32:23.390Z,21.98
2023-04-30T11:34:50.576Z,20.85
2023-04-30T11:37:23.457Z,21.40
2023-04-30T11:39:50.093Z,21.19
2023-04-30T11:42:18.807Z,20.86
2023-04-30T11:44:46.069Z,21.63
2023-04-30T11:47:15.978Z,21.86
2023-04-30T11:49:45.532Z,20.97
2023-04-30T11:52:15.148Z,21.41
2023-04-30T11:54:41.622Z,22.08
2023-04-30T11:57:08.169Z,22.42
2023-04-30T11:59:41.780Z,22.67
2023-04-30T12:02:08.383Z,22.27
2023-04-30T12:04:36.797Z,19.65
2023-04-30T12:07:04.274Z,16.70
2023-04-30T12:09:30.776Z,18.04
2023-04-30T12:11:58.304Z,19.03
2023-04-30T12:14:25.370Z,20.37
2023-04-30T12:16:52.894Z,20.83
2023-04-30T12:19:22.108Z,21.26
2023-04-30T12:21:49.300Z,19.83
2023-04-30T12:24:17.133Z,20.91
2023-04-30T12:26:45.341Z,21.04
2023-04-30T12:29:15.860Z,20.84
2023-04-30T12:31:43.168Z,20.94
2023-04-30T12:34:12.641Z,21.13
2023-04-30T12:36:42.597Z,18.93
2023-04-30T12:39:10.953Z,18.98
2023-04-30T12:41:47.501Z,18.47
2023-04-30T12:44:25.121Z,19.51
2023-04-30T12:46:56.184Z,19.68
2023-04-30T12:49:43.275Z,20.05
2023-04-30T12:52:12.444Z,20.29
2023-04-30T12:54:39.976Z,20.41
2023-04-30T12:57:11.996Z,20.29
2023-04-30T12:59:40.170Z,20.07
2023-04-30T13:02:08.348Z,17.86
2023-04-30T13:04:36.151Z,18.66
2023-04-30T13:07:03.587Z,18.67
2023-04-30T13:09:31.862Z,19.38
2023-04-30T13:11:58.318Z,19.91
2023-04-30T13:14:25.045Z,19.93
2023-04-30T13:16:51.586Z,19.60
2023-04-30T13:19:18.165Z,19.81
2023-04-30T13:21:44.776Z,19.83
2023-04-30T13:24:11.683Z,19.98
2023-04-30T13:26:39.233Z,18.96
2023-04-30T13:29:05.690Z,17.89
2023-04-30T13:31:32.222Z,17.19
2023-04-30T13:33:59.862Z,17.89
2023-04-30T13:36:27.110Z,18.42
2023-04-30T13:38:53.799Z,19.16
2023-04-30T13:41:22.038Z,18.60
2023-04-30T13:43:49.334Z,18.80
2023-04-30T13:46:16.643Z,18.39
2023-04-30T13:48:43.329Z,18.35
2023-04-30T13:51:09.822Z,18.20
2023-04-30T13:53:37.287Z,18.75
2023-04-30T13:56:04.082Z,18.12
2023-04-30T13:58:30.732Z,18.51
2023-04-30T14:00:57.327Z,18.88
2023-04-30T14:03:24.302Z,18.88
2023-04-30T14:05:51.165Z,18.75
2023-04-30T14:08:17.604Z,18.37
2023-04-30T14:10:44.218Z,17.22
2023-04-30T14:13:11.038Z,17.70
2023-04-30T14:15:38.641Z,18.22
2023-04-30T14:18:05.420Z,18.15
2023-04-30T14:20:35.650Z,18.75
2023-04-30T14:23:02.956Z,17.30
2023-04-30T14:25:29.510Z,17.25
2023-04-30T14:27:55.955Z,17.04
2023-04-30T14:30:22.571Z,16.78
2023-04-30T14:32:49.358Z,16.65
2023-04-30T14:35:15.980Z,16.29
2023-04-30T14:37:43.009Z,16.96
2023-04-30T14:40:10.130Z,18.15
2023-04-30T14:42:36.807Z,18.26
2023-04-30T14:45:03.979Z,17.91
2023-04-30T14:47:31.204Z,17.58
2023-04-30T14:49:59.022Z,17.86
2023-04-30T14:52:25.742Z,18.19
2023-04-30T14:54:52.564Z,17.70
2023-04-30T14:57:19.312Z,18.26
2023-04-30T14:59:45.720Z,18.10
2023-04-30T15:02:12.429Z,16.75
2023-04-30T15:04:39.089Z,16.34
2023-04-30T15:07:05.765Z,16.30
2023-04-30T15:09:32.312Z,16.79
2023-04-30T15:11:58.865Z,16.10
2023-04-30T15:14:25.485Z,16.98
2023-04-30T15:16:52.138Z,17.25
2023-04-30T15:19:18.722Z,17.13
2023-04-30T15:21:46.977Z,16.55
2023-04-30T15:24:16.119Z,16.88
2023-04-30T15:26:42.734Z,16.94
2023-04-30T15:29:10.537Z,17.25
2023-04-30T15:31:37.560Z,17.33
2023-04-30T15:34:05.456Z,17.65
2023-04-30T15:36:33.306Z,17.69
2023-04-30T15:38:59.894Z,17.57
2023-04-30T15:41:26.473Z,17.83
2023-04-30T15:43:53.071Z,17.03
2023-04-30T15:46:19.665Z,16.38
2023-04-30T15:48:46.265Z,16.19
2023-04-30T15:51:12.830Z,16.86
2023-04-30T15:53:39.567Z,17.29
2023-04-30T15:56:06.351Z,17.62
2023-04-30T15:58:32.924Z,16.37
2023-04-30T16:00:59.598Z,16.84
2023-04-30T16:03:26.317Z,16.30
2023-04-30T16:05:54.068Z,16.63
2023-04-30T16:08:20.863Z,16.47
2023-04-30T16:10:47.352Z,16.78
2023-04-30T16:13:13.868Z,16.64
2023-04-30T16:15:40.362Z,16.81
2023-04-30T16:18:07.801Z,16.30
2023-04-30T16:20:34.344Z,16.75
2023-04-30T16:23:00.900Z,16.97
2023-04-30T16:25:27.353Z,16.76
2023-04-30T16:27:54.116Z,16.92
2023-04-30T16:30:20.731Z,16.23
2023-04-30T16:32:47.749Z,16.30
2023-04-30T16:35:14.507Z,16.46
2023-04-30T16:37:41.099Z,16.55
2023-04-30T16:40:08.337Z,15.98
2023-04-30T16:42:34.998Z,16.01
2023-04-30T16:45:01.973Z,16.44
2023-04-30T16:47:28.834Z,16.22
2023-04-30T16:49:56.706Z,15.05
2023-04-30T16:52:23.793Z,15.56
2023-04-30T16:54:50.900Z,15.76
2023-04-30T16:57:17.429Z,15.93
2023-04-30T16:59:44.062Z,16.06
2023-04-30T17:02:10.664Z,16.02
2023-04-30T17:04:37.429Z,15.93
2023-04-30T17:07:04.093Z,15.66
2023-04-30T17:09:31.362Z,15.63
2023-04-30T17:11:58.100Z,15.70
2023-04-30T17:14:24.721Z,15.74
2023-04-30T17:16:51.275Z,15.72
2023-04-30T17:19:18.106Z,15.81
2023-04-30T17:21:44.696Z,15.60
2023-04-30T17:24:11.605Z,15.35
2023-04-30T17:26:38.453Z,15.36
2023-04-30T17:29:06.294Z,15.25
2023-04-30T17:31:33.312Z,15.22
2023-04-30T17:34:02.822Z,15.01
2023-04-30T17:36:30.357Z,14.87
2023-04-30T17:38:57.096Z,14.87
2023-04-30T17:41:24.079Z,14.71
2023-04-30T17:43:51.706Z,14.58
2023-04-30T17:46:18.466Z,14.42
2023-04-30T17:48:46.122Z,14.34
2023-04-30T17:51:12.655Z,14.09
2023-04-30T17:53:39.358Z,13.99
2023-04-30T17:56:06.309Z,13.81
2023-04-30T17:58:34.787Z,13.70
2023-04-30T18:01:03.400Z,13.59
2023-04-30T18:03:30.388Z,13.53
2023-04-30T18:05:57.093Z,13.29
2023-04-30T18:08:23.784Z,13.06
2023-04-30T18:10:50.381Z,12.83
2023-04-30T18:13:17.060Z,12.77
2023-04-30T18:15:43.661Z,12.67
2023-04-30T18:18:10.271Z,12.50
2023-04-30T18:20:37.054Z,12.41
2023-04-30T18:23:05.259Z,12.28
2023-04-30T18:25:34.330Z,12.17
2023-04-30T18:28:01.514Z,12.00
2023-04-30T18:30:28.199Z,11.84
2023-04-30T18:32:54.842Z,11.70
2023-04-30T18:35:22.206Z,11.55
2023-04-30T18:37:49.726Z,11.42
2023-04-30T18:40:16.609Z,11.32
2023-04-30T18:42:43.146Z,11.19
2023-04-30T18:45:11.437Z,11.14
2023-04-30T18:47:40.869Z,11.04
2023-04-30T18:50:15.445Z,10.84
2023-04-30T18:52:42.639Z,10.78
2023-04-30T18:55:11.683Z,10.62
2023-04-30T18:57:40.561Z,10.57
2023-04-30T19:00:09.872Z,10.43
2023-04-30T19:02:37.001Z,10.32
2023-04-30T19:05:03.939Z,10.33
2023-04-30T19:07:31.621Z,10.29
2023-04-30T19:09:58.680Z,10.20
2023-04-30T19:12:25.294Z,10.09
2023-04-30T19:14:52.040Z,9.99
2023-04-30T19:17:21.464Z,10.00
2023-04-30T19:19:50.253Z,9.84
2023-04-30T19:22:17.199Z,9.73
2023-04-30T19:24:43.905Z,9.72
2023-04-30T19:27:11.269Z,9.61
2023-04-30T19:29:39.567Z,9.50
2023-04-30T19:32:06.612Z,9.39
2023-04-30T19:34:33.521Z,9.32
2023-04-30T19:37:02.571Z,9.24
2023-04-30T19:39:36.076Z,9.25
2023-04-30T19:42:04.252Z,9.08
2023-04-30T19:44:30.925Z,9.02
2023-04-30T19:46:58.918Z,8.91
2023-04-30T19:49:26.615Z,8.79
2023-04-30T19:51:53.879Z,8.76
2023-04-30T19:54:21.391Z,8.70
2023-04-30T19:56:47.955Z,8.62
2023-04-30T19:59:15.526Z,8.59
2023-04-30T20:01:42.515Z,8.62
2023-04-30T20:04:09.897Z,8.59
2023-04-30T20:06:36.684Z,8.61
2023-04-30T20:09:04.818Z,8.51
2023-04-30T20:11:33.013Z,8.42
2023-04-30T20:13:59.532Z,8.55
2023-04-30T20:16:26.295Z,8.50
2023-04-30T20:18:52.763Z,8.34
2023-04-30T20:21:20.639Z,8.34
2023-04-30T20:23:47.291Z,8.17
2023-04-30T20:26:13.884Z,8.12
2023-04-30T20:28:40.595Z,8.06
2023-04-30T20:31:09.571Z,7.90
2023-04-30T20:33:36.271Z,7.87
2023-04-30T20:36:03.103Z,7.85
2023-04-30T20:38:30.929Z,7.75
2023-04-30T20:40:58.839Z,7.62
2023-04-30T20:43:25.303Z,7.41
2023-04-30T20:45:56.670Z,7.51
2023-04-30T20:48:25.972Z,7.41
2023-04-30T20:50:52.962Z,7.29
2023-04-30T20:53:21.110Z,7.32
2023-04-30T20:55:47.703Z,7.09
2023-04-30T20:58:14.441Z,6.96
2023-04-30T21:00:41.100Z,6.93
2023-04-30T21:03:08.432Z,6.89
2023-04-30T21:05:35.257Z,6.81
2023-04-30T21:08:02.031Z,6.84
2023-04-30T21:10:35.359Z,6.74
2023-04-30T21:13:06.375Z,6.61
2023-04-30T21:15:35.185Z,6.74
2023-04-30T21:18:02.002Z,6.72
2023-04-30T21:20:28.630Z,6.70
2023-04-30T21:22:56.489Z,6.65
2023-04-30T21:25:23.044Z,6.65
2023-04-30T21:27:49.962Z,6.50
2023-04-30T21:30:17.037Z,6.47
2023-04-30T21:32:46.981Z,6.38
2023-04-30T21:35:19.137Z,6.37
2023-04-30T21:37:45.588Z,6.34
2023-04-30T21:40:12.232Z,6.21
2023-04-30T21:42:39.975Z,6.22
2023-04-30T21:45:24.587Z,6.25
2023-04-30T21:47:51.149Z,6.20
2023-04-30T21:50:17.713Z,6.19
2023-04-30T21:52:44.372Z,6.15
2023-04-30T21:55:11.081Z,6.10
2023-04-30T21:57:37.610Z,6.05
2023-04-30T22:00:06.558Z,6.02
2023-04-30T22:02:33.800Z,6.06
2023-04-30T22:05:00.876Z,6.03
2023-04-30T22:07:30.041Z,5.95
2023-04-30T22:09:57.433Z,5.84
2023-04-30T22:12:25.224Z,5.78
2023-04-30T22:14:55.414Z,5.71
2023-04-30T22:17:22.691Z,5.73
2023-04-30T22:19:49.196Z,5.67
2023-04-30T22:22:16.013Z,5.54
2023-04-30T22:24:42.637Z,5.54
2023-04-30T22:27:09.054Z,5.50
2023-04-30T22:29:35.702Z,5.43
2023-04-30T22:32:02.493Z,5.36
2023-04-30T22:34:29.211Z,5.36
2023-04-30T22:36:56.553Z,5.39
2023-04-30T22:39:22.997Z,5.50
2023-04-30T22:41:50.856Z,5.45
2023-04-30T22:44:18.691Z,5.48
2023-04-30T22:46:46.035Z,5.36
2023-04-30T22:49:23.792Z,5.36
2023-04-30T22:51:57.495Z,5.37
2023-04-30T22:54:24.460Z,5.27
2023-04-30T22:56:50.873Z,5.49
2023-04-30T22:59:17.302Z,5.50
2023-04-30T23:01:43.789Z,5.41
2023-04-30T23:04:10.372Z,5.32
2023-04-30T23:06:36.851Z,5.21
2023-04-30T23:09:03.623Z,5.13
2023-04-30T23:11:29.980Z,5.05
2023-04-30T23:13:57.228Z,4.95
2023-04-30T23:16:24.980Z,4.91
2023-04-30T23:18:51.617Z,4.88
2023-04-30T23:21:18.165Z,4.82
2023-04-30T23:23:45.000Z,4.80
2023-04-30T23:26:11.559Z,4.81
2023-04-30T23:28:38.230Z,4.78
2023-04-30T23:31:04.792Z,4.73
2023-04-30T23:33:31.297Z,4.69
2023-04-30T23:35:57.921Z,4.69
2023-04-30T23:38:25.519Z,4.76
2023-04-30T23:40:52.225Z,4.73
2023-04-30T23:43:18.792Z,4.77
2023-04-30T23:45:45.455Z,4.70
2023-04-30T23:48:12.041Z,4.68
2023-04-30T23:50:38.570Z,4.60
2023-04-30T23:53:05.114Z,4.56
2023-04-30T23:55:31.869Z,4.54
2023-04-30T23:57:58.396Z,4.52
